
Distance (Route):
Temperature : 10.6°C
Humidity : 0%
Pressure : 0hPa| Receiver | Frames | First received | Last received |
|---|---|---|---|
| LZ4TU-5 | 87 | 2026-09-04 00:55:11 | 2026-09-04 01:49:04 |
| Receiver | Date | Latitude | Longitude | Direction | Speed | Altitude | Climb | Temperature | Humidity | Pressure | Voltage | Killtimer | Uptime | BKT | XDATA |
|---|---|---|---|---|---|---|---|---|---|---|---|---|---|---|---|
| LZ4TU-5 | 2026-09-04 01:49:04 | 40.28486 | 24.36326 | 78° | 69km/h | 13072m | -1.8m/s | 10.6°C | 0% | 0hPa | 0V | 00:00:00 | 00:00:00 | 00:00:00 | |
| LZ4TU-5 | 2026-09-04 01:48:47 | 40.28459 | 24.35947 | 84° | 73km/h | 13106m | -2.0m/s | 10.6°C | 55.8% | 0hPa | 0V | 00:00:00 | 00:00:00 | 00:00:00 | |
| LZ4TU-5 | 2026-09-04 01:48:37 | 40.28449 | 24.35720 | 83° | 66km/h | 13127m | -1.7m/s | 10.6°C | 55.8% | 0hPa | 0V | 00:00:00 | 00:00:00 | 00:00:00 | |
| LZ4TU-5 | 2026-09-04 01:48:25 | 40.28439 | 24.35449 | 93° | 69km/h | 13149m | -1.9m/s | 10.6°C | 55.8% | 0hPa | 0V | 00:00:00 | 00:00:00 | 00:00:00 | |
| LZ4TU-5 | 2026-09-04 01:48:19 | 40.28431 | 24.35308 | 85° | 66km/h | 13161m | -2.0m/s | 10.6°C | 55.8% | 0hPa | 0V | 00:00:00 | 00:00:00 | 00:00:00 | |
| LZ4TU-5 | 2026-09-04 01:48:13 | 40.28424 | 24.35172 | 83° | 69km/h | 13173m | -1.8m/s | 10.6°C | 55.8% | 0hPa | 0V | 00:00:00 | 00:00:00 | 00:00:00 | |
| LZ4TU-5 | 2026-09-04 01:47:00 | 40.28282 | 24.33608 | 72° | 60km/h | 13319m | -2.6m/s | 10.6°C | 55.8% | 0hPa | 0V | 00:00:00 | 00:00:00 | 00:00:00 | |
| LZ4TU-5 | 2026-09-04 01:46:56 | 40.28264 | 24.33521 | 79° | 69km/h | 13327m | -2.2m/s | 10.6°C | 55.8% | 0hPa | 0V | 00:00:00 | 00:00:00 | 00:00:00 | |
| LZ4TU-5 | 2026-09-04 01:46:51 | 40.28247 | 24.33420 | 77° | 60km/h | 13338m | -2.3m/s | 10.6°C | 0% | 0hPa | 0V | 00:00:00 | 00:00:00 | 00:00:00 | |
| LZ4TU-5 | 2026-09-04 01:45:49 | 40.27910 | 24.32097 | 76° | 62km/h | 13462m | -1.9m/s | 10.6°C | 55.8% | 0hPa | 0V | 00:00:00 | 00:00:00 | 00:00:00 | |
| LZ4TU-5 | 2026-09-04 01:45:44 | 40.27878 | 24.31992 | 72° | 78km/h | 13470m | -1.6m/s | 10.6°C | 55.8% | 0hPa | 0V | 00:00:00 | 00:00:00 | 00:00:00 | |
| LZ4TU-5 | 2026-09-04 01:44:43 | 40.27526 | 24.30590 | 73° | 84km/h | 13577m | -1.5m/s | 10.6°C | 55.8% | 0hPa | 0V | 00:00:00 | 00:00:00 | 00:00:00 | |
| LZ4TU-5 | 2026-09-04 01:44:38 | 40.27503 | 24.30468 | 74° | 66km/h | 13585m | -1.9m/s | 10.6°C | 55.8% | 0hPa | 0V | 00:00:00 | 00:00:00 | 00:00:00 | |
| LZ4TU-5 | 2026-09-04 01:43:37 | 40.27194 | 24.28968 | 82° | 77km/h | 13687m | -1.9m/s | 10.6°C | 55.8% | 0hPa | 0V | 00:00:00 | 00:00:00 | 00:00:00 | |
| LZ4TU-5 | 2026-09-04 01:43:32 | 40.27167 | 24.28848 | 74° | 86km/h | 13696m | -1.6m/s | 10.6°C | 0% | 0hPa | 0V | 00:00:00 | 00:00:00 | 00:00:00 | |
| LZ4TU-5 | 2026-09-04 01:42:30 | 40.26901 | 24.27187 | 81° | 89km/h | 13808m | -1.8m/s | 10.6°C | 55.8% | 0hPa | 0V | 00:00:00 | 00:00:00 | 00:00:00 | |
| LZ4TU-5 | 2026-09-04 01:42:25 | 40.26882 | 24.27048 | 79° | 88km/h | 13817m | -1.8m/s | 10.6°C | 55.8% | 0hPa | 0V | 00:00:00 | 00:00:00 | 00:00:00 | |
| LZ4TU-5 | 2026-09-04 01:41:24 | 40.26756 | 24.25320 | 84° | 80km/h | 13940m | -2.1m/s | 10.6°C | 55.8% | 0hPa | 0V | 00:00:00 | 00:00:00 | 00:00:00 | |
| LZ4TU-5 | 2026-09-04 01:41:19 | 40.26750 | 24.25172 | 95° | 86km/h | 13950m | -2.1m/s | 10.6°C | 0% | 0hPa | 0V | 00:00:00 | 00:00:00 | 00:00:00 | |
| LZ4TU-5 | 2026-09-04 01:40:19 | 40.26745 | 24.23542 | 90° | 77km/h | 14077m | -2.1m/s | 10.6°C | 55.8% | 0hPa | 0V | 00:00:00 | 00:00:00 | 00:00:00 | |
| LZ4TU-5 | 2026-09-04 01:40:14 | 40.26753 | 24.23413 | 94° | 82km/h | 14087m | -2.0m/s | 10.6°C | 55.8% | 0hPa | 0V | 00:00:00 | 00:00:00 | 00:00:00 | |
| LZ4TU-5 | 2026-09-04 01:39:09 | 40.26777 | 24.21828 | 95° | 66km/h | 14209m | -2.0m/s | 10.6°C | 0% | 0hPa | 0V | 00:00:00 | 00:00:00 | 00:00:00 | |
| LZ4TU-5 | 2026-09-04 01:38:09 | 40.26595 | 24.20564 | 76° | 69km/h | 14312m | -1.8m/s | 10.6°C | 55.8% | 0hPa | 0V | 00:00:00 | 00:00:00 | 00:00:00 | |
| LZ4TU-5 | 2026-09-04 01:38:04 | 40.26563 | 24.20452 | 66° | 68km/h | 14321m | -1.6m/s | 10.6°C | 55.8% | 0hPa | 0V | 00:00:00 | 00:00:00 | 00:00:00 | |
| LZ4TU-5 | 2026-09-04 01:37:03 | 40.26194 | 24.19130 | 72° | 75km/h | 14417m | -1.6m/s | 10.6°C | 55.8% | 0hPa | 0V | 00:00:00 | 00:00:00 | 00:00:00 | |
| LZ4TU-5 | 2026-09-04 01:36:59 | 40.26167 | 24.19034 | 69° | 75km/h | 14424m | -1.4m/s | 10.6°C | 0% | 0hPa | 0V | 00:00:00 | 00:00:00 | 00:00:00 | |
| LZ4TU-5 | 2026-09-04 01:35:59 | 40.25786 | 24.17627 | 68° | 77km/h | 14520m | -1.6m/s | 10.6°C | 55.8% | 0hPa | 0V | 00:00:00 | 00:00:00 | 00:00:00 | |
| LZ4TU-5 | 2026-09-04 01:35:54 | 40.25755 | 24.17502 | 77° | 80km/h | 14528m | -1.8m/s | 10.6°C | 55.8% | 0hPa | 0V | 00:00:00 | 00:00:00 | 00:00:00 | |
| LZ4TU-5 | 2026-09-04 01:34:53 | 40.25394 | 24.15947 | 81° | 82km/h | 14637m | -1.9m/s | 10.6°C | 55.8% | 0hPa | 0V | 00:00:00 | 00:00:00 | 00:00:00 | |
| LZ4TU-5 | 2026-09-04 01:33:47 | 40.25110 | 24.14156 | 82° | 82km/h | 14739m | -1.1m/s | 10.6°C | 55.8% | 0hPa | 0V | 00:00:00 | 00:00:00 | 00:00:00 | |
| LZ4TU-5 | 2026-09-04 01:33:42 | 40.25090 | 24.14023 | 84° | 78km/h | 14745m | -1.0m/s | 10.6°C | 55.8% | 0hPa | 0V | 00:00:00 | 00:00:00 | 00:00:00 | |
| LZ4TU-5 | 2026-09-04 01:32:41 | 40.24970 | 24.12412 | 88° | 82km/h | 14828m | -1.2m/s | 10.6°C | 55.8% | 0hPa | 0V | 00:00:00 | 00:00:00 | 00:00:00 | |
| LZ4TU-5 | 2026-09-04 01:32:37 | 40.24962 | 24.12308 | 84° | 75km/h | 14833m | -1.3m/s | 10.6°C | 0% | 0hPa | 0V | 00:00:00 | 00:00:00 | 00:00:00 | |
| LZ4TU-5 | 2026-09-04 01:31:34 | 40.24924 | 24.10724 | 88° | 75km/h | 14914m | -1.7m/s | 10.6°C | 55.8% | 0hPa | 0V | 00:00:00 | 00:00:00 | 00:00:00 | |
| LZ4TU-5 | 2026-09-04 01:31:29 | 40.24923 | 24.10607 | 94° | 69km/h | 14922m | -1.6m/s | 10.6°C | 55.8% | 0hPa | 0V | 00:00:00 | 00:00:00 | 00:00:00 | |
| LZ4TU-5 | 2026-09-04 01:30:29 | 40.24873 | 24.09245 | 85° | 66km/h | 15026m | -1.8m/s | 10.6°C | 55.8% | 0hPa | 0V | 00:00:00 | 00:00:00 | 00:00:00 | |
| LZ4TU-5 | 2026-09-04 01:30:24 | 40.24866 | 24.09135 | 87° | 71km/h | 15035m | -1.9m/s | 10.6°C | 0% | 0hPa | 0V | 00:00:00 | 00:00:00 | 00:00:00 | |
| LZ4TU-5 | 2026-09-04 01:29:24 | 40.24732 | 24.07689 | 86° | 73km/h | 15153m | -1.8m/s | 10.6°C | 55.8% | 0hPa | 0V | 00:00:00 | 00:00:00 | 00:00:00 | |
| LZ4TU-5 | 2026-09-04 01:29:18 | 40.24725 | 24.07566 | 86° | 77km/h | 15163m | -1.9m/s | 10.6°C | 55.8% | 0hPa | 0V | 00:00:00 | 00:00:00 | 00:00:00 | |
| LZ4TU-5 | 2026-09-04 01:28:17 | 40.24648 | 24.06092 | 88° | 69km/h | 15262m | -1.5m/s | 10.6°C | 55.8% | 0hPa | 0V | 00:00:00 | 00:00:00 | 00:00:00 | |
| LZ4TU-5 | 2026-09-04 01:28:12 | 40.24647 | 24.05974 | 90° | 75km/h | 15268m | -1.4m/s | 10.6°C | 0% | 0hPa | 0V | 00:00:00 | 00:00:00 | 00:00:00 | |
| LZ4TU-5 | 2026-09-04 01:27:12 | 40.24649 | 24.04617 | 89° | 69km/h | 15348m | -1.1m/s | 10.6°C | 55.8% | 0hPa | 0V | 00:00:00 | 00:00:00 | 00:00:00 | |
| LZ4TU-5 | 2026-09-04 01:27:07 | 40.24645 | 24.04509 | 90° | 62km/h | 15354m | -1.2m/s | 10.6°C | 55.8% | 0hPa | 0V | 00:00:00 | 00:00:00 | 00:00:00 | |
| LZ4TU-5 | 2026-09-04 01:26:06 | 40.24613 | 24.03221 | 91° | 64km/h | 15435m | -1.0m/s | 10.6°C | 55.8% | 0hPa | 0V | 00:00:00 | 00:00:00 | 00:00:00 | |
| LZ4TU-5 | 2026-09-04 01:26:01 | 40.24612 | 24.03115 | 88° | 62km/h | 15442m | -1.3m/s | 10.6°C | 0% | 0hPa | 0V | 00:00:00 | 00:00:00 | 00:00:00 | |
| LZ4TU-5 | 2026-09-04 01:25:01 | 40.24505 | 24.01885 | 82° | 60km/h | 15525m | -1.5m/s | 10.6°C | 55.8% | 0hPa | 0V | 00:00:00 | 00:00:00 | 00:00:00 | |
| LZ4TU-5 | 2026-09-04 01:24:56 | 40.24487 | 24.01786 | 76° | 64km/h | 15531m | -1.1m/s | 10.6°C | 55.8% | 0hPa | 0V | 00:00:00 | 00:00:00 | 00:00:00 | |
| LZ4TU-5 | 2026-09-04 01:23:56 | 40.24227 | 24.00556 | 75° | 66km/h | 15603m | -1.4m/s | 10.6°C | 55.8% | 0hPa | 0V | 00:00:00 | 00:00:00 | 00:00:00 | |
| LZ4TU-5 | 2026-09-04 01:23:51 | 40.24206 | 24.00454 | 77° | 64km/h | 15609m | -1.3m/s | 10.6°C | 55.8% | 0hPa | 0V | 00:00:00 | 00:00:00 | 00:00:00 | |
| LZ4TU-5 | 2026-09-04 01:22:50 | 40.23978 | 23.99149 | 79° | 69km/h | 15675m | -0.9m/s | 10.6°C | 55.8% | 0hPa | 0V | 00:00:00 | 00:00:00 | 00:00:00 | |
| LZ4TU-5 | 2026-09-04 01:22:46 | 40.23964 | 23.99059 | 77° | 69km/h | 15679m | -0.8m/s | 10.6°C | 55.8% | 0hPa | 0V | 00:00:00 | 00:00:00 | 00:00:00 | |
| LZ4TU-5 | 2026-09-04 01:21:45 | 40.23666 | 23.97788 | 74° | 68km/h | 15745m | -1.0m/s | 10.6°C | 55.8% | 0hPa | 0V | 00:00:00 | 00:00:00 | 00:00:00 | |
| LZ4TU-5 | 2026-09-04 01:21:41 | 40.23647 | 23.97703 | 73° | 66km/h | 15749m | -1.1m/s | 10.6°C | 0% | 0hPa | 0V | 00:00:00 | 00:00:00 | 00:00:00 | |
| LZ4TU-5 | 2026-09-04 01:20:40 | 40.23370 | 23.96481 | 76° | 62km/h | 15824m | -1.5m/s | 10.6°C | 55.8% | 0hPa | 0V | 00:00:00 | 00:00:00 | 00:00:00 | |
| LZ4TU-5 | 2026-09-04 01:20:36 | 40.23353 | 23.96404 | 75° | 60km/h | 15829m | -1.3m/s | 10.6°C | 55.8% | 0hPa | 0V | 00:00:00 | 00:00:00 | 00:00:00 | |
| LZ4TU-5 | 2026-09-04 01:19:35 | 40.23141 | 23.95248 | 80° | 57km/h | 15911m | -2.0m/s | 10.6°C | 55.8% | 0hPa | 0V | 00:00:00 | 00:00:00 | 00:00:00 | |
| LZ4TU-5 | 2026-09-04 01:19:30 | 40.23127 | 23.95154 | 82° | 58km/h | 15918m | -1.4m/s | 10.6°C | 0% | 0hPa | 0V | 00:00:00 | 00:00:00 | 00:00:00 | |
| LZ4TU-5 | 2026-09-04 01:18:29 | 40.23056 | 23.93990 | 90° | 58km/h | 15991m | -0.9m/s | 10.6°C | 55.8% | 0hPa | 0V | 00:00:00 | 00:00:00 | 00:00:00 | |
| LZ4TU-5 | 2026-09-04 01:18:24 | 40.23058 | 23.93893 | 93° | 58km/h | 15997m | -1.2m/s | 10.6°C | 55.8% | 0hPa | 0V | 00:00:00 | 00:00:00 | 00:00:00 | |
| LZ4TU-5 | 2026-09-04 01:17:23 | 40.23094 | 23.92759 | 97° | 55km/h | 16058m | -1.2m/s | 10.6°C | 55.8% | 0hPa | 0V | 00:00:00 | 00:00:00 | 00:00:00 | |
| LZ4TU-5 | 2026-09-04 01:17:19 | 40.23100 | 23.92686 | 96° | 55km/h | 16061m | -0.8m/s | 10.6°C | 0% | 0hPa | 0V | 00:00:00 | 00:00:00 | 00:00:00 | |
| LZ4TU-5 | 2026-09-04 01:16:18 | 40.23176 | 23.91619 | 95° | 51km/h | 16107m | -0.6m/s | 10.6°C | 55.8% | 0hPa | 0V | 00:00:00 | 00:00:00 | 00:00:00 | |
| LZ4TU-5 | 2026-09-04 01:16:16 | 40.23180 | 23.91550 | 95° | 51km/h | 16109m | -0.5m/s | 10.6°C | 55.8% | 0hPa | 0V | 00:00:00 | 00:00:00 | 00:00:00 | |
| LZ4TU-5 | 2026-09-04 01:15:13 | 40.23194 | 23.90504 | 90° | 51km/h | 16139m | -0.4m/s | 10.6°C | 55.8% | 0hPa | 0V | 00:00:00 | 00:00:00 | 00:00:00 | |
| LZ4TU-5 | 2026-09-04 01:15:08 | 40.23192 | 23.90419 | 89° | 53km/h | 16142m | -0.6m/s | 10.6°C | 0% | 0hPa | 0V | 00:00:00 | 00:00:00 | 00:00:00 | |
| LZ4TU-5 | 2026-09-04 01:14:08 | 40.23154 | 23.89405 | 87° | 51km/h | 16153m | 0.2m/s | 10.6°C | 55.8% | 0hPa | 0V | 00:00:00 | 00:00:00 | 00:00:00 | |
| LZ4TU-5 | 2026-09-04 01:14:03 | 40.23150 | 23.89321 | 87° | 51km/h | 16153m | 0.3m/s | 10.6°C | 55.8% | 0hPa | 0V | 00:00:00 | 00:00:00 | 00:00:00 | |
| LZ4TU-5 | 2026-09-04 01:13:02 | 40.23111 | 23.88288 | 89° | 51km/h | 16132m | 0.4m/s | 10.6°C | 55.8% | 0hPa | 0V | 00:00:00 | 00:00:00 | 00:00:00 | |
| LZ4TU-5 | 2026-09-04 01:12:57 | 40.23109 | 23.88203 | 89° | 51km/h | 16130m | 0.4m/s | 10.6°C | 0% | 0hPa | 0V | 00:00:00 | 00:00:00 | 00:00:00 | |
| LZ4TU-5 | 2026-09-04 01:09:01 | 40.23181 | 23.84195 | 97° | 51km/h | 16038m | 0.8m/s | 10.6°C | 55.8% | 0hPa | 0V | 00:00:00 | 00:00:00 | 00:00:00 | |
| LZ4TU-5 | 2026-09-04 01:08:56 | 40.23188 | 23.84112 | 99° | 51km/h | 16034m | 0.9m/s | 10.6°C | 0% | 0hPa | 0V | 00:00:00 | 00:00:00 | 00:00:00 | |
| LZ4TU-5 | 2026-09-04 01:07:44 | 40.23310 | 23.82903 | 99° | 51km/h | 15968m | 1.3m/s | 10.6°C | 55.8% | 0hPa | 0V | 00:00:00 | 00:00:00 | 00:00:00 | |
| LZ4TU-5 | 2026-09-04 01:07:39 | 40.23318 | 23.82817 | 98° | 53km/h | 15963m | 0.6m/s | 10.6°C | 55.8% | 0hPa | 0V | 00:00:00 | 00:00:00 | 00:00:00 | |
| LZ4TU-5 | 2026-09-04 01:06:11 | 40.23401 | 23.81264 | 94° | 55km/h | 15907m | 0.6m/s | 10.6°C | 55.8% | 0hPa | 0V | 00:00:00 | 00:00:00 | 00:00:00 | |
| LZ4TU-5 | 2026-09-04 01:06:07 | 40.23404 | 23.81191 | 93° | 55km/h | 15905m | 0.8m/s | 10.6°C | 55.8% | 0hPa | 0V | 00:00:00 | 00:00:00 | 00:00:00 | |
| LZ4TU-5 | 2026-09-04 01:03:51 | 40.23204 | 23.78708 | 76° | 57km/h | 15822m | 1.0m/s | 10.6°C | 55.8% | 0hPa | 0V | 00:00:00 | 00:00:00 | 00:00:00 | |
| LZ4TU-5 | 2026-09-04 01:03:46 | 40.23188 | 23.78620 | 79° | 53km/h | 15818m | 0.5m/s | 10.6°C | 55.8% | 0hPa | 0V | 00:00:00 | 00:00:00 | 00:00:00 | |
| LZ4TU-5 | 2026-09-04 01:02:04 | 40.22762 | 23.76747 | 75° | 62km/h | 15718m | 1.0m/s | 10.6°C | 55.8% | 0hPa | 0V | 00:00:00 | 00:00:00 | 00:00:00 | |
| LZ4TU-5 | 2026-09-04 01:01:59 | 40.22741 | 23.76652 | 74° | 58km/h | 15712m | 0.7m/s | 10.6°C | 55.8% | 0hPa | 0V | 00:00:00 | 00:00:00 | 00:00:00 | |
| LZ4TU-5 | 2026-09-04 01:00:35 | 40.22366 | 23.74989 | 78° | 62km/h | 15611m | 1.7m/s | 10.6°C | 55.8% | 0hPa | 0V | 00:00:00 | 00:00:00 | 00:00:00 | |
| LZ4TU-5 | 2026-09-04 01:00:31 | 40.22353 | 23.74910 | 80° | 60km/h | 15606m | 0.9m/s | 10.6°C | 0% | 0hPa | 0V | 00:00:00 | 00:00:00 | 00:00:00 | |
| LZ4TU-5 | 2026-09-04 00:58:39 | 40.21938 | 23.72648 | 80° | 62km/h | 15492m | 1.0m/s | 10.6°C | 55.8% | 0hPa | 0V | 00:00:00 | 00:00:00 | 00:00:00 | |
| LZ4TU-5 | 2026-09-04 00:58:34 | 40.21925 | 23.72549 | 79° | 60km/h | 15487m | 0.6m/s | 10.6°C | 55.8% | 0hPa | 0V | 00:00:00 | 00:00:00 | 00:00:00 | |
| LZ4TU-5 | 2026-09-04 00:57:03 | 40.21785 | 23.70669 | 87° | 68km/h | 15412m | 0.6m/s | 10.6°C | 55.8% | 0hPa | 0V | 00:00:00 | 00:00:00 | 00:00:00 | |
| LZ4TU-5 | 2026-09-04 00:56:59 | 40.21781 | 23.70577 | 87° | 69km/h | 15409m | 1.1m/s | 10.6°C | 55.8% | 0hPa | 0V | 00:00:00 | 00:00:00 | 00:00:00 | |
| LZ4TU-5 | 2026-09-04 00:55:16 | 40.21765 | 23.68224 | 92° | 68km/h | 15293m | 1.6m/s | 10.6°C | 55.8% | 0hPa | 0V | 00:00:00 | 00:00:00 | 00:00:00 | |
| LZ4TU-5 | 2026-09-04 00:55:11 | 40.21762 | 23.68112 | 88° | 75km/h | 15285m | 1.5m/s | 10.6°C | 55.8% | 0hPa | 0V | 00:00:00 | 00:00:00 | 00:00:00 |